createdAt,value
2023-03-31T00:00:19.878Z,47.14
2023-03-31T00:01:18.287Z,47.18
2023-03-31T00:02:18.399Z,47.12
2023-03-31T00:03:18.514Z,47.13
2023-03-31T00:04:18.531Z,47.07
2023-03-31T00:05:18.550Z,47.08
2023-03-31T00:06:19.250Z,47.12
2023-03-31T00:07:18.542Z,47.14
2023-03-31T00:08:18.485Z,47.14
2023-03-31T00:09:18.574Z,47.11
2023-03-31T00:10:18.859Z,47.12
2023-03-31T00:11:18.549Z,47.12
2023-03-31T00:12:18.580Z,47.12
2023-03-31T00:13:18.586Z,47.11
2023-03-31T00:14:18.621Z,47.02
2023-03-31T00:15:18.665Z,47.01
2023-03-31T00:16:18.708Z,47.03
2023-03-31T00:17:18.703Z,47.08
2023-03-31T00:18:18.733Z,47.09
2023-03-31T00:19:18.771Z,47.08
2023-03-31T00:20:18.786Z,47.06
2023-03-31T00:21:18.818Z,47.06
2023-03-31T00:22:18.873Z,47.08
2023-03-31T00:23:18.895Z,47.01
2023-03-31T00:24:18.907Z,47.08
2023-03-31T00:25:18.954Z,47.01
2023-03-31T00:26:18.974Z,47.06
2023-03-31T00:27:19.394Z,47.06
2023-03-31T00:28:19.006Z,47.12
2023-03-31T00:29:19.042Z,47.03
2023-03-31T00:30:19.095Z,47.02
2023-03-31T00:31:19.229Z,47.06
2023-03-31T00:32:19.190Z,46.97
2023-03-31T00:33:19.252Z,47.00
2023-03-31T00:34:19.276Z,46.96
2023-03-31T00:35:19.297Z,47.02
2023-03-31T00:36:19.377Z,46.99
2023-03-31T00:37:19.391Z,47.00
2023-03-31T00:38:19.416Z,46.96
2023-03-31T00:39:19.479Z,47.00
2023-03-31T00:40:19.493Z,46.98
2023-03-31T00:41:19.549Z,46.98
2023-03-31T00:42:19.624Z,47.02
2023-03-31T00:43:19.613Z,47.00
2023-03-31T00:44:19.679Z,46.96
2023-03-31T00:45:19.724Z,46.94
2023-03-31T00:46:19.791Z,46.91
2023-03-31T00:47:19.824Z,46.92
2023-03-31T00:48:19.858Z,46.90
2023-03-31T00:49:19.913Z,46.93
2023-03-31T00:50:20.917Z,46.98
2023-03-31T00:51:20.021Z,46.98
2023-03-31T00:52:19.991Z,46.96
2023-03-31T00:53:20.001Z,47.03
2023-03-31T00:54:19.974Z,46.94
2023-03-31T00:55:20.122Z,46.95
2023-03-31T00:56:19.934Z,46.95
2023-03-31T00:57:19.954Z,46.95
2023-03-31T00:58:19.934Z,46.94
2023-03-31T00:59:19.897Z,46.91
2023-03-31T01:00:19.892Z,46.97
2023-03-31T01:01:19.921Z,46.93
2023-03-31T01:02:19.894Z,46.98
2023-03-31T01:03:20.004Z,46.89
2023-03-31T01:04:19.996Z,46.97
2023-03-31T01:05:20.040Z,46.89
2023-03-31T01:06:20.168Z,46.87
2023-03-31T01:07:20.164Z,46.94
2023-03-31T01:08:20.168Z,46.86
2023-03-31T01:09:20.203Z,46.89
2023-03-31T01:10:20.289Z,46.93
2023-03-31T01:11:20.240Z,46.89
2023-03-31T01:12:20.299Z,46.89
2023-03-31T01:13:20.320Z,46.87
2023-03-31T01:14:20.375Z,46.91
2023-03-31T01:15:20.418Z,46.88
2023-03-31T01:16:20.521Z,46.92
2023-03-31T01:17:20.624Z,46.89
2023-03-31T01:18:20.694Z,46.86
2023-03-31T01:19:20.669Z,46.88
2023-03-31T01:20:20.676Z,46.80
2023-03-31T01:21:22.365Z,46.87
2023-03-31T01:22:20.761Z,46.92
2023-03-31T01:23:20.844Z,46.87
2023-03-31T01:24:20.858Z,46.81
2023-03-31T01:25:20.986Z,46.92
2023-03-31T01:26:20.931Z,46.91
2023-03-31T01:27:21.094Z,46.86
2023-03-31T01:28:20.996Z,46.85
2023-03-31T01:29:21.008Z,46.84
2023-03-31T01:30:21.022Z,46.89
2023-03-31T01:31:22.906Z,46.87
2023-03-31T01:32:21.068Z,46.82
2023-03-31T01:33:21.897Z,46.78
2023-03-31T01:34:21.133Z,46.84
2023-03-31T01:35:21.206Z,46.81
2023-03-31T01:36:21.189Z,46.75
2023-03-31T01:37:21.303Z,46.74
2023-03-31T01:38:21.261Z,46.86
2023-03-31T01:39:21.280Z,46.88
2023-03-31T01:40:21.305Z,46.89
2023-03-31T01:41:21.352Z,46.88
2023-03-31T01:42:21.447Z,46.86
2023-03-31T01:43:21.446Z,46.84
2023-03-31T01:44:21.512Z,46.80
2023-03-31T01:45:21.575Z,46.81
2023-03-31T01:46:21.659Z,46.81
2023-03-31T01:47:21.666Z,46.80
2023-03-31T01:48:21.708Z,46.78
2023-03-31T01:49:21.759Z,46.84
2023-03-31T01:50:21.894Z,46.80
2023-03-31T01:51:21.849Z,46.78
2023-03-31T01:52:21.947Z,46.79
2023-03-31T01:53:21.937Z,46.80
2023-03-31T01:54:21.974Z,46.80
2023-03-31T01:55:22.072Z,46.81
2023-03-31T01:56:22.074Z,46.81
2023-03-31T01:57:22.207Z,46.84
2023-03-31T01:58:22.175Z,46.80
2023-03-31T01:59:22.128Z,46.79
2023-03-31T02:00:22.192Z,46.83
2023-03-31T02:01:22.238Z,46.82
2023-03-31T02:02:22.284Z,46.76
2023-03-31T02:03:22.506Z,46.82
2023-03-31T02:04:22.314Z,46.75
2023-03-31T02:05:22.341Z,46.74
2023-03-31T02:06:22.399Z,46.80
2023-03-31T02:07:22.436Z,46.67
2023-03-31T02:08:22.442Z,46.76
2023-03-31T02:09:22.482Z,46.80
2023-03-31T02:10:22.492Z,46.79
2023-03-31T02:11:22.534Z,46.72
2023-03-31T02:12:22.588Z,46.83
2023-03-31T02:13:22.613Z,46.78
2023-03-31T02:14:22.678Z,46.76
2023-03-31T02:15:22.737Z,46.81
2023-03-31T02:16:22.801Z,46.73
2023-03-31T02:17:22.853Z,46.66
2023-03-31T02:18:22.851Z,46.73
2023-03-31T02:19:22.955Z,46.73
2023-03-31T02:20:22.919Z,46.68
2023-03-31T02:21:22.946Z,46.60
2023-03-31T02:22:22.976Z,46.63
2023-03-31T02:23:23.046Z,46.65
2023-03-31T02:24:23.086Z,46.65
2023-03-31T02:25:23.069Z,46.73
2023-03-31T02:26:23.135Z,46.60
2023-03-31T02:27:23.141Z,46.65
2023-03-31T02:28:23.178Z,46.68
2023-03-31T02:29:23.244Z,46.65
2023-03-31T02:30:23.283Z,46.68
2023-03-31T02:31:23.367Z,46.65
2023-03-31T02:32:23.399Z,46.71
2023-03-31T02:33:23.376Z,46.67
2023-03-31T02:34:23.425Z,46.61
2023-03-31T02:35:23.504Z,46.68
2023-03-31T02:36:23.487Z,46.69
2023-03-31T02:37:23.528Z,46.67
2023-03-31T02:38:23.580Z,46.66
2023-03-31T02:39:23.630Z,46.64
2023-03-31T02:40:23.670Z,46.64
2023-03-31T02:41:23.717Z,46.62
2023-03-31T02:42:23.736Z,46.63
2023-03-31T02:43:23.770Z,46.60
2023-03-31T02:44:23.823Z,46.67
2023-03-31T02:45:23.869Z,46.50
2023-03-31T02:46:24.045Z,46.60
2023-03-31T02:47:24.030Z,46.65
2023-03-31T02:48:24.012Z,46.63
2023-03-31T02:49:24.057Z,46.60
2023-03-31T02:50:24.108Z,46.66
2023-03-31T02:51:24.150Z,46.57
2023-03-31T02:52:24.174Z,46.61
2023-03-31T02:53:24.271Z,46.65
2023-03-31T02:54:24.291Z,46.63
2023-03-31T02:55:24.323Z,46.64
2023-03-31T02:56:24.393Z,46.65
2023-03-31T02:57:24.448Z,46.61
2023-03-31T02:58:24.475Z,46.57
2023-03-31T02:59:24.595Z,46.55
2023-03-31T03:00:24.637Z,46.55
2023-03-31T03:01:24.669Z,46.54
2023-03-31T03:02:24.835Z,46.63
2023-03-31T03:03:25.455Z,46.57
2023-03-31T03:04:24.909Z,46.56
2023-03-31T03:05:24.943Z,46.54
2023-03-31T03:06:25.014Z,46.49
2023-03-31T03:07:25.072Z,46.59
2023-03-31T03:08:25.079Z,46.59
2023-03-31T03:09:25.147Z,46.55
2023-03-31T03:10:25.170Z,46.55
2023-03-31T03:11:25.257Z,46.53
2023-03-31T03:12:25.290Z,46.53
2023-03-31T03:13:25.305Z,46.58
2023-03-31T03:14:25.397Z,46.56
2023-03-31T03:15:25.425Z,46.51
2023-03-31T03:16:25.532Z,46.54
2023-03-31T03:17:25.528Z,46.56
2023-03-31T03:18:25.535Z,46.50
2023-03-31T03:19:25.582Z,46.51
2023-03-31T03:20:25.617Z,46.52
2023-03-31T03:21:25.695Z,46.53
2023-03-31T03:22:25.722Z,46.46
2023-03-31T03:23:25.748Z,46.50
2023-03-31T03:24:25.785Z,46.49
2023-03-31T03:25:25.834Z,46.51
2023-03-31T03:26:25.853Z,46.51
2023-03-31T03:27:25.908Z,46.57
2023-03-31T03:28:25.940Z,46.51
2023-03-31T03:29:25.980Z,46.55
2023-03-31T03:30:26.016Z,46.53
2023-03-31T03:31:26.316Z,46.44
2023-03-31T03:32:25.908Z,46.53
2023-03-31T03:33:25.891Z,46.53
2023-03-31T03:34:25.884Z,46.58
2023-03-31T03:35:25.876Z,46.48
2023-03-31T03:36:25.926Z,46.55
2023-03-31T03:37:25.836Z,46.51
2023-03-31T03:38:25.838Z,46.55
2023-03-31T03:39:25.860Z,46.57
2023-03-31T03:40:25.847Z,46.51
2023-03-31T03:41:25.862Z,46.45
2023-03-31T03:42:25.945Z,46.44
2023-03-31T03:43:26.887Z,46.47
2023-03-31T03:44:25.875Z,46.45
2023-03-31T03:45:25.858Z,46.57
2023-03-31T03:46:25.875Z,46.49
2023-03-31T03:47:25.822Z,46.55
2023-03-31T03:48:25.817Z,46.45
2023-03-31T03:49:25.812Z,46.45
2023-03-31T03:50:25.757Z,46.51
2023-03-31T03:51:27.422Z,46.43
2023-03-31T03:52:25.845Z,46.48
2023-03-31T03:53:25.889Z,46.51
2023-03-31T03:54:25.890Z,46.51
2023-03-31T03:55:25.957Z,46.37
2023-03-31T03:56:26.002Z,46.44
2023-03-31T03:57:26.101Z,46.45
2023-03-31T03:58:26.096Z,46.44
2023-03-31T03:59:26.152Z,46.39
2023-03-31T04:00:26.171Z,46.43
2023-03-31T04:01:26.180Z,46.40
2023-03-31T04:02:28.010Z,46.45
2023-03-31T04:03:26.307Z,46.50
2023-03-31T04:04:26.299Z,46.43
2023-03-31T04:05:26.380Z,46.45
2023-03-31T04:06:26.390Z,46.46
2023-03-31T04:07:26.454Z,46.47
2023-03-31T04:08:27.490Z,46.47
2023-03-31T04:09:26.503Z,46.48
2023-03-31T04:10:26.558Z,46.45
2023-03-31T04:11:26.593Z,46.40
2023-03-31T04:12:26.610Z,46.37
2023-03-31T04:13:28.420Z,46.40
2023-03-31T04:14:26.667Z,46.39
2023-03-31T04:15:26.718Z,46.42
2023-03-31T04:16:29.714Z,46.41
2023-03-31T04:17:26.759Z,46.40
2023-03-31T04:18:26.725Z,46.40
2023-03-31T04:19:26.746Z,46.41
2023-03-31T04:20:26.733Z,46.38
2023-03-31T04:21:26.675Z,46.36
2023-03-31T04:22:26.662Z,46.39
2023-03-31T04:23:26.702Z,46.39
2023-03-31T04:24:26.668Z,46.37
2023-03-31T04:25:26.620Z,46.35
2023-03-31T04:26:26.634Z,46.40
2023-03-31T04:27:26.594Z,46.41
2023-03-31T04:28:26.581Z,46.34
2023-03-31T04:29:26.572Z,46.37
2023-03-31T04:30:26.584Z,46.32
2023-03-31T04:31:26.650Z,46.30
2023-03-31T04:32:26.559Z,46.38
2023-03-31T04:33:26.511Z,46.33
2023-03-31T04:34:27.418Z,46.35
2023-03-31T04:35:26.516Z,46.36
2023-03-31T04:36:26.472Z,46.33
2023-03-31T04:37:26.465Z,46.40
2023-03-31T04:38:26.440Z,46.41
2023-03-31T04:39:26.469Z,46.34
2023-03-31T04:40:26.407Z,46.40
2023-03-31T04:41:26.390Z,46.43
2023-03-31T04:42:26.383Z,46.40
2023-03-31T04:43:26.364Z,46.38
2023-03-31T04:44:26.345Z,46.42
2023-03-31T04:45:26.420Z,46.38
2023-03-31T04:46:26.335Z,46.46
2023-03-31T04:47:26.339Z,46.42
2023-03-31T04:48:26.259Z,46.35
2023-03-31T04:49:26.245Z,46.41
2023-03-31T04:50:26.251Z,46.36
2023-03-31T04:51:26.205Z,46.36
2023-03-31T04:52:27.182Z,46.35
2023-03-31T04:53:26.156Z,46.33
2023-03-31T04:54:26.131Z,46.36
2023-03-31T04:55:26.126Z,46.41
2023-03-31T04:56:26.095Z,46.36
2023-03-31T04:57:26.490Z,46.36
2023-03-31T04:58:26.060Z,46.42
2023-03-31T04:59:26.064Z,46.39
2023-03-31T05:00:26.017Z,46.32
2023-03-31T05:01:26.027Z,46.34
2023-03-31T05:02:26.018Z,46.31
2023-03-31T05:03:26.080Z,46.36
2023-03-31T05:04:25.934Z,46.37
2023-03-31T05:05:25.981Z,46.37
2023-03-31T05:06:25.990Z,46.31
2023-03-31T05:07:26.031Z,46.33
2023-03-31T05:08:26.015Z,46.39
2023-03-31T05:09:26.931Z,46.35
2023-03-31T05:10:26.067Z,46.38
2023-03-31T05:11:26.089Z,46.30
2023-03-31T05:12:26.951Z,46.24
2023-03-31T05:13:26.926Z,46.25
2023-03-31T05:14:26.144Z,46.26
2023-03-31T05:15:26.149Z,46.28
2023-03-31T05:16:26.212Z,46.29
2023-03-31T05:17:26.230Z,46.26
2023-03-31T05:18:26.187Z,46.20
2023-03-31T05:19:26.200Z,46.26
2023-03-31T05:20:26.295Z,46.25
2023-03-31T05:21:26.273Z,46.29
2023-03-31T05:22:26.309Z,46.25
2023-03-31T05:23:26.343Z,46.35
2023-03-31T05:24:26.318Z,46.55
2023-03-31T05:25:26.303Z,46.60
2023-03-31T05:26:26.305Z,46.72
2023-03-31T05:27:26.280Z,46.58
2023-03-31T05:28:27.251Z,46.58
2023-03-31T05:29:26.228Z,46.59
2023-03-31T05:30:26.948Z,46.63
2023-03-31T05:31:26.231Z,46.62
2023-03-31T05:32:26.984Z,46.69
2023-03-31T05:33:26.161Z,46.77
2023-03-31T05:34:26.151Z,46.77
2023-03-31T05:35:26.134Z,46.77
2023-03-31T05:36:26.124Z,46.75
2023-03-31T05:37:27.966Z,46.77
2023-03-31T05:38:26.073Z,46.79
2023-03-31T05:39:26.059Z,46.82
2023-03-31T05:40:26.034Z,46.73
2023-03-31T05:41:26.031Z,46.90
2023-03-31T05:42:26.000Z,46.76
2023-03-31T05:43:26.986Z,46.89
2023-03-31T05:44:25.956Z,46.83
2023-03-31T05:45:25.946Z,46.82
2023-03-31T05:46:26.010Z,46.86
2023-03-31T05:47:26.442Z,46.80
2023-03-31T05:48:26.036Z,46.78
2023-03-31T05:49:25.858Z,46.82
2023-03-31T05:50:27.459Z,46.76
2023-03-31T05:51:25.832Z,46.82
2023-03-31T05:52:25.885Z,46.85
2023-03-31T05:53:25.788Z,46.92
2023-03-31T05:54:25.796Z,46.86
2023-03-31T05:55:25.809Z,46.83
2023-03-31T05:56:25.843Z,46.80
2023-03-31T05:57:26.024Z,46.85
2023-03-31T05:58:25.942Z,46.79
2023-03-31T05:59:25.931Z,46.92
2023-03-31T06:00:26.451Z,46.83
2023-03-31T06:01:25.920Z,46.80
2023-03-31T06:02:26.044Z,46.80
2023-03-31T06:03:25.912Z,46.84
2023-03-31T06:04:25.908Z,46.83
2023-03-31T06:05:25.823Z,46.78
2023-03-31T06:06:25.809Z,46.80
2023-03-31T06:07:25.791Z,46.79
2023-03-31T06:08:27.493Z,46.82
2023-03-31T06:09:25.748Z,46.77
2023-03-31T06:10:27.461Z,46.87
2023-03-31T06:11:25.832Z,46.89
2023-03-31T06:12:25.862Z,46.89
2023-03-31T06:13:29.880Z,46.76
2023-03-31T06:14:25.892Z,46.81
2023-03-31T06:15:26.481Z,46.78
2023-03-31T06:16:25.982Z,46.86
2023-03-31T06:17:25.853Z,46.77
2023-03-31T06:18:25.825Z,46.78
2023-03-31T06:19:25.808Z,46.84
2023-03-31T06:20:28.512Z,46.77
2023-03-31T06:21:26.464Z,46.81
2023-03-31T06:22:25.798Z,46.77
2023-03-31T06:23:25.763Z,46.91
2023-03-31T06:24:25.764Z,47.07
2023-03-31T06:25:25.775Z,46.98
2023-03-31T06:26:25.731Z,47.07
2023-03-31T06:27:25.708Z,47.16
2023-03-31T06:28:27.488Z,47.05
2023-03-31T06:29:26.478Z,47.06
2023-03-31T06:30:25.662Z,47.11
2023-03-31T06:31:27.564Z,47.13
2023-03-31T06:32:25.687Z,47.13
2023-03-31T06:33:25.615Z,47.16
2023-03-31T06:34:25.597Z,47.23
2023-03-31T06:35:25.598Z,47.08
2023-03-31T06:36:27.491Z,47.16
2023-03-31T06:37:25.559Z,47.22
2023-03-31T06:38:25.546Z,47.22
2023-03-31T06:39:28.121Z,47.10
2023-03-31T06:40:25.523Z,47.17
2023-03-31T06:41:25.511Z,47.13
2023-03-31T06:42:28.470Z,47.15
2023-03-31T06:43:25.508Z,47.16
2023-03-31T06:44:25.522Z,47.10
2023-03-31T06:45:25.462Z,47.20
2023-03-31T06:46:25.984Z,47.11
2023-03-31T06:47:25.509Z,47.10
2023-03-31T06:48:25.473Z,47.11
2023-03-31T06:49:25.417Z,47.03
2023-03-31T06:50:25.972Z,47.03
2023-03-31T06:51:25.388Z,47.10
2023-03-31T06:52:25.972Z,47.10
2023-03-31T06:53:25.349Z,47.07
2023-03-31T06:54:25.961Z,47.09
2023-03-31T06:55:25.320Z,47.10
2023-03-31T06:56:25.311Z,47.09
2023-03-31T06:57:25.358Z,47.16
2023-03-31T06:58:25.289Z,47.11
2023-03-31T06:59:25.284Z,47.06
2023-03-31T07:00:25.285Z,47.12
2023-03-31T07:01:25.319Z,47.03
2023-03-31T07:02:25.321Z,47.11
2023-03-31T07:03:25.563Z,47.14
2023-03-31T07:04:25.222Z,47.06
2023-03-31T07:05:25.198Z,47.11
2023-03-31T07:06:25.183Z,47.12
2023-03-31T07:07:25.156Z,47.06
2023-03-31T07:08:25.152Z,47.08
2023-03-31T07:09:25.131Z,47.04
2023-03-31T07:10:27.013Z,47.06
2023-03-31T07:11:25.085Z,47.04
2023-03-31T07:12:26.983Z,47.11
2023-03-31T07:13:25.118Z,47.03
2023-03-31T07:14:27.557Z,46.98
2023-03-31T07:15:25.104Z,47.05
2023-03-31T07:16:25.172Z,47.08
2023-03-31T07:17:26.997Z,47.04
2023-03-31T07:18:25.216Z,47.04
2023-03-31T07:19:25.276Z,47.09
2023-03-31T07:20:25.340Z,47.11
2023-03-31T07:21:25.987Z,46.98
2023-03-31T07:22:25.401Z,47.02
2023-03-31T07:23:25.434Z,47.06
2023-03-31T07:24:25.479Z,47.06
2023-03-31T07:25:25.519Z,47.01
2023-03-31T07:26:25.534Z,47.05
2023-03-31T07:27:26.479Z,47.03
2023-03-31T07:28:25.620Z,46.97
2023-03-31T07:29:25.636Z,46.95
2023-03-31T07:30:25.716Z,47.02
2023-03-31T07:31:25.790Z,46.95
2023-03-31T07:32:27.714Z,46.93
2023-03-31T07:33:25.750Z,47.00
2023-03-31T07:34:25.724Z,46.97
2023-03-31T07:35:25.744Z,47.00
2023-03-31T07:36:25.728Z,47.00
2023-03-31T07:37:25.677Z,46.97
2023-03-31T07:38:25.693Z,47.02
2023-03-31T07:39:25.648Z,46.95
2023-03-31T07:40:25.725Z,46.91
2023-03-31T07:41:25.621Z,46.97
2023-03-31T07:42:25.609Z,46.97
2023-03-31T07:43:25.588Z,46.95
2023-03-31T07:44:25.584Z,46.97
2023-03-31T07:45:25.551Z,46.94
2023-03-31T07:46:25.631Z,46.87
2023-03-31T07:47:25.516Z,46.89
2023-03-31T07:48:25.547Z,46.99
2023-03-31T07:49:25.988Z,46.95
2023-03-31T07:50:25.519Z,46.96
2023-03-31T07:51:25.451Z,46.92
2023-03-31T07:52:25.440Z,46.92
2023-03-31T07:53:25.407Z,46.90
2023-03-31T07:54:25.393Z,46.89
2023-03-31T07:55:25.360Z,46.91
2023-03-31T07:56:25.369Z,46.95
2023-03-31T07:57:25.385Z,46.87
2023-03-31T07:58:25.345Z,46.95
2023-03-31T07:59:25.314Z,46.90
2023-03-31T08:00:25.358Z,46.92
2023-03-31T08:01:25.259Z,46.94
2023-03-31T08:02:25.335Z,46.93
2023-03-31T08:03:25.235Z,46.98
2023-03-31T08:04:25.278Z,47.02
2023-03-31T08:05:25.198Z,46.99
2023-03-31T08:06:25.184Z,47.25
2023-03-31T08:07:25.985Z,47.02
2023-03-31T08:08:25.149Z,47.02
2023-03-31T08:09:25.148Z,47.10
2023-03-31T08:10:25.128Z,47.20
2023-03-31T08:11:25.982Z,47.33
2023-03-31T08:12:25.123Z,47.44
2023-03-31T08:13:27.988Z,47.48
2023-03-31T08:14:38.048Z,47.03
2023-03-31T08:15:25.037Z,47.29
2023-03-31T08:16:25.616Z,47.03
2023-03-31T08:17:25.000Z,46.88
2023-03-31T08:18:25.016Z,46.79
2023-03-31T08:19:24.968Z,46.33
2023-03-31T08:20:25.041Z,46.72
2023-03-31T08:21:25.912Z,46.73
2023-03-31T08:22:24.940Z,46.76
2023-03-31T08:23:24.950Z,46.91
2023-03-31T08:24:24.899Z,46.85
2023-03-31T08:25:24.951Z,47.13
2023-03-31T08:26:24.995Z,47.28
2023-03-31T08:27:25.054Z,47.54
2023-03-31T08:28:25.058Z,47.66
2023-03-31T08:29:25.104Z,47.65
2023-03-31T08:30:25.123Z,47.87
2023-03-31T08:31:27.327Z,47.59
2023-03-31T08:32:25.238Z,44.44
2023-03-31T08:33:25.210Z,42.84
2023-03-31T08:34:25.211Z,42.76
2023-03-31T08:35:25.195Z,43.75
2023-03-31T08:37:44.032Z,44.02
2023-03-31T08:38:44.029Z,44.06
2023-03-31T08:39:44.056Z,44.46
2023-03-31T08:40:44.719Z,44.85
2023-03-31T08:41:43.999Z,45.15
2023-03-31T08:42:43.983Z,45.47
2023-03-31T08:43:43.961Z,45.73
2023-03-31T08:44:43.946Z,45.97
2023-03-31T08:45:50.735Z,46.46
2023-03-31T08:46:43.960Z,46.49
2023-03-31T08:47:43.946Z,46.64
2023-03-31T08:48:43.856Z,47.14
2023-03-31T08:49:44.220Z,47.25
2023-03-31T08:50:43.806Z,47.41
2023-03-31T08:51:43.780Z,47.62
2023-03-31T08:52:43.775Z,47.83
2023-03-31T08:53:43.758Z,47.96
2023-03-31T08:54:43.712Z,48.25
2023-03-31T08:55:46.253Z,48.40
2023-03-31T08:56:43.921Z,48.59
2023-03-31T08:57:45.532Z,48.64
2023-03-31T08:58:44.846Z,48.94
2023-03-31T08:59:45.730Z,48.91
2023-03-31T09:00:43.784Z,49.19
2023-03-31T09:01:54.529Z,49.52
2023-03-31T09:02:46.808Z,49.62
2023-03-31T09:03:43.804Z,49.51
2023-03-31T09:04:43.669Z,49.71
2023-03-31T09:05:52.983Z,49.89
2023-03-31T09:06:48.641Z,49.76
2023-03-31T09:07:43.568Z,50.00
2023-03-31T09:08:44.234Z,50.28
2023-03-31T09:09:43.663Z,50.28
2023-03-31T09:10:45.244Z,50.35
2023-03-31T09:11:43.608Z,50.65
2023-03-31T09:12:44.224Z,50.89
2023-03-31T09:13:43.570Z,51.02
2023-03-31T09:14:43.502Z,51.16
2023-03-31T09:15:43.464Z,51.22
2023-03-31T09:16:43.496Z,51.36
2023-03-31T09:17:43.426Z,51.35
2023-03-31T09:18:43.393Z,51.25
2023-03-31T09:19:43.356Z,51.35
2023-03-31T09:20:43.304Z,51.28
2023-03-31T09:21:44.226Z,51.10
2023-03-31T09:22:45.266Z,51.11
2023-03-31T09:23:43.238Z,51.05
2023-03-31T09:24:44.215Z,51.12
2023-03-31T09:25:43.333Z,51.07
2023-03-31T09:26:43.159Z,51.11
2023-03-31T09:27:43.134Z,51.09
2023-03-31T09:28:43.101Z,51.03
2023-03-31T09:29:43.091Z,51.03
2023-03-31T09:30:43.048Z,50.90
2023-03-31T09:31:43.064Z,50.94
2023-03-31T09:32:43.064Z,50.98
2023-03-31T09:33:42.984Z,50.97
2023-03-31T09:34:42.941Z,50.91
2023-03-31T09:35:45.153Z,50.81
2023-03-31T09:36:42.891Z,50.91
2023-03-31T09:37:42.858Z,50.84
2023-03-31T09:38:42.821Z,50.87
2023-03-31T09:39:43.775Z,50.75
2023-03-31T09:40:42.829Z,50.87
2023-03-31T09:41:42.761Z,50.80
2023-03-31T09:42:42.725Z,50.74
2023-03-31T09:43:42.699Z,50.72
2023-03-31T09:44:42.672Z,50.69
2023-03-31T09:45:42.694Z,50.70
2023-03-31T09:46:42.679Z,50.67
2023-03-31T09:47:42.685Z,50.59
2023-03-31T09:48:42.621Z,50.51
2023-03-31T09:49:42.566Z,50.53
2023-03-31T09:50:43.157Z,50.55
2023-03-31T09:51:42.530Z,50.40
2023-03-31T09:52:42.517Z,50.43
2023-03-31T09:53:42.508Z,50.35
2023-03-31T09:54:42.465Z,50.37
2023-03-31T09:55:42.442Z,50.31
2023-03-31T09:56:43.339Z,50.31
2023-03-31T09:57:42.387Z,50.30
2023-03-31T09:58:42.376Z,50.35
2023-03-31T09:59:42.349Z,50.35
2023-03-31T10:00:42.349Z,50.38
2023-03-31T10:01:42.383Z,50.43
2023-03-31T10:02:42.306Z,50.40
2023-03-31T10:03:42.312Z,50.38
2023-03-31T10:04:42.307Z,50.41
2023-03-31T10:05:42.281Z,50.33
2023-03-31T10:06:42.288Z,50.34
2023-03-31T10:07:42.228Z,50.33
2023-03-31T10:08:43.749Z,50.33
2023-03-31T10:09:42.294Z,50.33
2023-03-31T10:10:42.228Z,50.38
2023-03-31T10:11:42.128Z,50.39
2023-03-31T10:12:42.105Z,50.32
2023-03-31T10:13:42.091Z,50.40
2023-03-31T10:14:42.184Z,50.37
2023-03-31T10:15:42.806Z,50.26
2023-03-31T10:16:42.033Z,50.34
2023-03-31T10:17:53.871Z,51.01
2023-03-31T10:18:42.986Z,51.36
2023-03-31T10:19:41.966Z,51.68
2023-03-31T10:20:42.810Z,52.04
2023-03-31T10:21:41.938Z,52.87
2023-03-31T10:22:41.912Z,52.68
2023-03-31T10:23:41.899Z,52.86
2023-03-31T10:24:41.866Z,53.40
2023-03-31T10:25:41.842Z,52.73
2023-03-31T10:26:41.817Z,52.79
2023-03-31T10:27:41.794Z,52.56
2023-03-31T10:28:41.771Z,52.47
2023-03-31T10:29:41.750Z,52.23
2023-03-31T10:30:41.732Z,51.83
2023-03-31T10:31:41.716Z,51.82
2023-03-31T10:32:41.763Z,51.79
2023-03-31T10:33:41.673Z,51.79
2023-03-31T10:34:41.619Z,51.75
2023-03-31T10:35:41.617Z,51.70
2023-03-31T10:36:41.547Z,51.67
2023-03-31T10:37:41.527Z,51.55
2023-03-31T10:38:41.503Z,51.56
2023-03-31T10:39:41.465Z,51.54
2023-03-31T10:40:41.518Z,51.66
2023-03-31T10:41:41.409Z,51.73
2023-03-31T10:42:41.380Z,51.73
2023-03-31T10:43:41.345Z,51.72
2023-03-31T10:44:41.331Z,51.94
2023-03-31T10:45:41.305Z,51.80
2023-03-31T10:46:41.341Z,51.95
2023-03-31T10:47:41.305Z,52.08
2023-03-31T10:48:41.755Z,52.21
2023-03-31T10:49:41.193Z,52.16
2023-03-31T10:50:41.164Z,52.41
2023-03-31T10:51:41.138Z,52.43
2023-03-31T10:52:41.092Z,52.62
2023-03-31T10:53:41.070Z,52.78
2023-03-31T10:54:41.027Z,53.13
2023-03-31T10:55:41.026Z,53.05
2023-03-31T10:56:40.956Z,53.36
2023-03-31T10:57:40.960Z,53.57
2023-03-31T10:58:40.897Z,53.39
2023-03-31T10:59:40.915Z,54.33
2023-03-31T11:00:40.856Z,53.77
2023-03-31T11:01:40.881Z,53.66
2023-03-31T11:02:40.856Z,53.40
2023-03-31T11:03:40.847Z,52.08
2023-03-31T11:04:40.744Z,51.86
2023-03-31T11:05:40.705Z,51.82
2023-03-31T11:06:40.666Z,50.75
2023-03-31T11:07:40.655Z,50.42
2023-03-31T11:08:40.605Z,49.83
2023-03-31T11:09:40.604Z,50.39
2023-03-31T11:10:40.681Z,50.46
2023-03-31T11:11:40.541Z,50.43
2023-03-31T11:12:40.514Z,50.41
2023-03-31T11:13:40.521Z,50.43
2023-03-31T11:14:40.527Z,50.42
2023-03-31T11:15:40.570Z,50.45
2023-03-31T11:16:40.679Z,50.42
2023-03-31T11:17:40.575Z,50.39
2023-03-31T11:18:40.542Z,50.41
2023-03-31T11:19:40.596Z,50.46
2023-03-31T11:20:40.552Z,50.42
2023-03-31T11:21:40.569Z,50.46
2023-03-31T11:22:40.573Z,50.45
2023-03-31T11:23:40.587Z,50.34
2023-03-31T11:24:40.611Z,50.38
2023-03-31T11:25:40.607Z,50.32
2023-03-31T11:26:40.614Z,50.32
2023-03-31T11:27:40.640Z,50.25
2023-03-31T11:28:40.630Z,50.26
2023-03-31T11:29:40.633Z,50.18
2023-03-31T11:30:40.652Z,50.21
2023-03-31T11:31:40.684Z,50.20
2023-03-31T11:32:40.675Z,50.14
2023-03-31T11:33:40.669Z,50.14
2023-03-31T11:34:40.692Z,50.20
2023-03-31T11:35:40.750Z,50.19
2023-03-31T11:36:40.736Z,50.13
2023-03-31T11:37:40.746Z,50.10
2023-03-31T11:38:40.778Z,50.09
2023-03-31T11:39:40.780Z,49.99
2023-03-31T11:40:40.813Z,49.97
2023-03-31T11:41:40.810Z,49.93
2023-03-31T11:42:40.832Z,49.89
2023-03-31T11:43:40.862Z,49.87
2023-03-31T11:44:40.859Z,49.88
2023-03-31T11:45:40.926Z,49.84
2023-03-31T11:46:40.991Z,49.93
2023-03-31T11:47:40.973Z,49.87
2023-03-31T11:48:40.935Z,49.91
2023-03-31T11:49:40.950Z,49.95
2023-03-31T11:50:40.971Z,49.94
2023-03-31T11:51:40.984Z,49.95
2023-03-31T11:52:41.014Z,49.96
2023-03-31T11:53:41.018Z,49.95
2023-03-31T11:54:41.054Z,50.01
2023-03-31T11:55:41.071Z,49.98
2023-03-31T11:56:41.320Z,50.03
2023-03-31T11:57:41.091Z,50.00
2023-03-31T11:58:41.125Z,50.01
2023-03-31T11:59:41.137Z,49.97
2023-03-31T12:00:41.134Z,50.09
2023-03-31T12:01:41.151Z,50.05
2023-03-31T12:02:41.172Z,50.08
2023-03-31T12:03:41.189Z,50.03
2023-03-31T12:04:41.206Z,50.08
2023-03-31T12:05:41.250Z,49.99
2023-03-31T12:06:41.249Z,49.91
2023-03-31T12:07:41.276Z,49.98
2023-03-31T12:08:41.281Z,49.94
2023-03-31T12:09:41.297Z,49.99
2023-03-31T12:10:41.335Z,50.09
2023-03-31T12:11:41.352Z,50.06
2023-03-31T12:12:41.381Z,49.98
2023-03-31T12:13:41.398Z,50.02
2023-03-31T12:14:41.406Z,49.97
2023-03-31T12:15:41.494Z,50.14
2023-03-31T12:16:41.499Z,50.12
2023-03-31T12:17:41.508Z,50.02
2023-03-31T12:18:41.480Z,50.05
2023-03-31T12:19:41.486Z,50.11
2023-03-31T12:20:41.509Z,50.09
2023-03-31T12:21:41.540Z,50.08
2023-03-31T12:22:41.551Z,49.99
2023-03-31T12:23:41.585Z,50.03
2023-03-31T12:24:41.614Z,49.98
2023-03-31T12:25:41.614Z,50.05
2023-03-31T12:26:41.649Z,50.15
2023-03-31T12:27:41.711Z,50.06
2023-03-31T12:28:41.701Z,50.11
2023-03-31T12:29:41.721Z,50.07
2023-03-31T12:30:41.743Z,50.07
2023-03-31T12:31:41.827Z,50.09
2023-03-31T12:32:41.793Z,50.17
2023-03-31T12:33:41.808Z,50.10
2023-03-31T12:34:41.821Z,50.13
2023-03-31T12:35:41.914Z,50.16
2023-03-31T12:36:41.875Z,50.09
2023-03-31T12:37:42.790Z,50.15
2023-03-31T12:38:41.930Z,50.14
2023-03-31T12:39:41.955Z,50.10
2023-03-31T12:40:41.980Z,50.12
2023-03-31T12:41:42.072Z,50.01
2023-03-31T12:42:42.037Z,50.11
2023-03-31T12:43:42.073Z,50.16
2023-03-31T12:44:42.094Z,50.13
2023-03-31T12:45:42.122Z,50.14
2023-03-31T12:46:42.160Z,50.13
2023-03-31T12:47:42.262Z,50.12
2023-03-31T12:48:42.210Z,50.14
2023-03-31T12:49:42.243Z,50.17
2023-03-31T12:50:42.283Z,50.11
2023-03-31T12:51:42.302Z,50.08
2023-03-31T12:52:42.329Z,50.06
2023-03-31T12:53:42.351Z,50.02